Time;durP1;ratioP1;P1;durP2;ratioP2;P2;SDS_P1;SDS_P2;PMS_P1;PMS_P2;Temp;Humidity;BMP_temperature;BMP_pressure;BME280_temperature;BME280_humidity;BME280_pressure;Samples;Min_cycle;Max_cycle;Signal;HPM_P1;HPM_P2
2022/05/10 00:01:36;;;;;;;15.55;4.88;;;14.40;99.90;;;;;;5046446;28;20033;-69
2022/05/10 00:04:04;;;;;;;14.25;4.72;;;14.30;99.90;;;;;;5046430;28;20116;-67
2022/05/10 00:06:37;;;;;;;8.13;4.53;;;14.30;99.90;;;;;;5044273;28;20515;-69
2022/05/10 00:09:04;;;;;;;9.95;4.55;;;14.30;99.90;;;;;;5046470;28;20033;-66
2022/05/10 00:11:30;;;;;;;10.20;4.65;;;14.20;99.90;;;;;;5045028;28;20052;-67
2022/05/10 00:13:55;;;;;;;17.42;3.92;;;14.20;99.90;;;;;;5046078;28;20029;-68
2022/05/10 00:16:21;;;;;;;14.90;5.28;;;14.20;99.90;;;;;;5048401;28;20115;-67
2022/05/10 00:18:48;;;;;;;12.77;5.18;;;14.20;99.90;;;;;;5051089;28;20060;-67
2022/05/10 00:21:17;;;;;;;10.23;4.93;;;14.20;99.90;;;;;;5049785;28;20032;-68
2022/05/10 00:23:42;;;;;;;15.52;4.55;;;14.20;99.90;;;;;;5050830;28;20484;-66
2022/05/10 00:26:08;;;;;;;13.20;5.15;;;14.20;99.90;;;;;;5047651;28;20096;-67
2022/05/10 00:28:34;;;;;;;11.93;4.60;;;14.10;99.90;;;;;;5050015;28;20106;-68
2022/05/10 00:31:00;;;;;;;12.73;4.75;;;14.10;99.90;;;;;;5051033;28;20033;-65
2022/05/10 00:33:29;;;;;;;13.73;4.85;;;14.10;99.90;;;;;;5049250;28;20507;-67
2022/05/10 00:35:56;;;;;;;11.27;4.70;;;14.10;99.90;;;;;;5049695;28;20064;-67
2022/05/10 00:38:29;;;;;;;17.80;4.95;;;14.10;99.90;;;;;;5048984;28;20048;-68
2022/05/10 00:40:55;;;;;;;21.13;4.85;;;14.10;99.90;;;;;;5048218;28;20037;-67
2022/05/10 00:43:39;;;;;;;11.40;4.47;;;14.20;99.90;;;;;;5051190;28;20036;-68
2022/05/10 00:46:11;;;;;;;11.82;4.57;;;14.20;99.90;;;;;;5051909;28;20051;-67
2022/05/10 00:48:36;;;;;;;11.80;4.22;;;14.20;99.90;;;;;;5058299;28;20079;-68
2022/05/10 00:51:15;;;;;;;12.05;4.78;;;14.20;99.90;;;;;;5058481;28;20087;-67
2022/05/10 00:54:06;;;;;;;10.60;4.35;;;14.20;99.90;;;;;;5049963;28;20044;-67
2022/05/10 00:56:42;;;;;;;9.95;4.85;;;14.20;99.90;;;;;;5056820;28;20036;-69
2022/05/10 00:59:13;;;;;;;14.88;4.30;;;14.30;99.90;;;;;;5055850;28;20071;-69
2022/05/10 01:01:43;;;;;;;10.73;4.65;;;14.30;99.90;;;;;;5050732;28;20566;-68
2022/05/10 01:04:09;;;;;;;;;;;14.30;99.90;;;;;;5044380;28;20029;-68
2022/05/10 01:06:48;;;;;;;10.98;4.30;;;14.30;99.90;;;;;;5049330;28;19974;-66
2022/05/10 01:09:32;;;;;;;11.27;4.57;;;14.30;99.90;;;;;;5040951;28;20043;-67
2022/05/10 01:12:23;;;;;;;12.80;5.25;;;14.40;99.90;;;;;;5052154;28;20044;-69
2022/05/10 01:14:57;;;;;;;13.82;5.40;;;14.40;99.90;;;;;;5050948;28;20052;-68
2022/05/10 01:17:22;;;;;;;13.05;5.55;;;14.40;99.90;;;;;;5054481;28;20033;-67
2022/05/10 01:19:48;;;;;;;20.13;6.00;;;14.40;99.90;;;;;;5054945;28;20045;-68
2022/05/10 01:22:50;;;;;;;12.68;4.85;;;14.50;99.90;;;;;;5049083;28;20037;-69
2022/05/10 01:25:57;;;;;;;12.95;5.22;;;14.60;99.90;;;;;;5043737;28;20034;-68
2022/05/10 01:28:39;;;;;;;12.55;4.65;;;14.60;99.90;;;;;;5039833;28;20063;-69
2022/05/10 01:31:34;;;;;;;17.65;5.32;;;14.60;99.90;;;;;;5049673;28;20037;-68
2022/05/10 01:34:08;;;;;;;13.60;5.60;;;14.60;99.90;;;;;;5043514;28;20053;-68
2022/05/10 01:36:40;;;;;;;13.55;5.88;;;14.70;99.90;;;;;;5048804;28;20693;-70
2022/05/10 01:39:17;;;;;;;11.55;4.78;;;14.70;99.90;;;;;;5048790;28;20060;-69
2022/05/10 01:41:52;;;;;;;13.77;5.20;;;14.70;99.90;;;;;;5036734;28;20784;-68
2022/05/10 01:44:40;;;;;;;14.18;4.65;;;14.70;99.90;;;;;;5046940;28;20057;-68
2022/05/10 01:47:25;;;;;;;12.00;5.50;;;14.60;99.90;;;;;;5048206;28;20041;-69
2022/05/10 01:50:02;;;;;;;14.73;5.60;;;14.60;99.90;;;;;;5044347;28;20037;-68
2022/05/10 01:52:27;;;;;;;9.98;4.88;;;14.60;99.90;;;;;;5047662;28;20049;-68
2022/05/10 01:55:23;;;;;;;12.88;6.00;;;14.70;99.90;;;;;;5048164;28;20083;-70
2022/05/10 01:57:49;;;;;;;14.43;5.18;;;14.70;99.90;;;;;;5043438;28;20041;-68
2022/05/10 02:00:20;;;;;;;14.15;5.18;;;14.70;99.90;;;;;;5047364;28;20044;-67
2022/05/10 02:02:50;;;;;;;21.67;5.22;;;14.70;99.90;;;;;;5048161;28;20040;-67
2022/05/10 02:05:23;;;;;;;15.65;5.95;;;14.80;99.90;;;;;;5046025;28;20106;-68
2022/05/10 02:07:53;;;;;;;14.75;5.63;;;14.80;99.90;;;;;;5046643;28;20088;-67
2022/05/10 02:10:27;;;;;;;19.42;5.97;;;14.80;99.90;;;;;;5047454;28;20576;-66
2022/05/10 02:13:01;;;;;;;16.10;5.78;;;14.80;99.90;;;;;;5046043;28;20037;-68
2022/05/10 02:15:50;;;;;;;11.93;5.45;;;14.80;99.90;;;;;;5048246;28;20029;-67
2022/05/10 02:18:41;;;;;;;16.37;6.67;;;14.90;99.90;;;;;;5042815;28;20037;-68
2022/05/10 02:21:16;;;;;;;16.40;5.90;;;14.90;99.90;;;;;;5041033;28;20041;-67
2022/05/10 02:24:04;;;;;;;16.65;5.35;;;14.90;99.90;;;;;;5042114;28;20033;-69
2022/05/10 02:26:38;;;;;;;12.45;4.95;;;14.90;99.90;;;;;;5044363;28;20041;-67
2022/05/10 02:29:20;;;;;;;12.35;5.18;;;14.90;99.90;;;;;;5046261;28;20036;-67
2022/05/10 02:34:40;;;;;;;12.50;5.03;;;15.00;99.90;;;;;;5039233;28;20552;-67
2022/05/10 02:37:06;;;;;;;23.83;6.10;;;15.00;99.90;;;;;;5039803;28;20047;-68
2022/05/10 02:39:32;;;;;;;12.25;4.80;;;15.10;99.90;;;;;;5047389;28;20041;-67
2022/05/10 02:41:59;;;;;;;14.98;4.50;;;15.10;99.90;;;;;;5043820;28;20040;-67
2022/05/10 02:44:25;;;;;;;12.48;5.63;;;15.20;99.90;;;;;;5047158;28;20114;-67
2022/05/10 02:46:50;;;;;;;14.20;5.78;;;15.30;99.90;;;;;;5047779;28;20449;-66
2022/05/10 02:49:18;;;;;;;14.98;4.70;;;15.30;99.90;;;;;;5047588;28;20261;-68
2022/05/10 02:51:43;;;;;;;12.55;4.88;;;15.30;99.90;;;;;;5048588;28;20033;-67
2022/05/10 02:54:09;;;;;;;13.50;5.00;;;15.30;99.90;;;;;;5047172;28;20039;-68
2022/05/10 02:56:36;;;;;;;14.10;5.32;;;15.40;99.90;;;;;;5047426;28;20591;-69
2022/05/10 02:59:11;;;;;;;19.55;5.07;;;15.40;99.90;;;;;;5043928;28;20489;-68
2022/05/10 03:01:54;;;;;;;13.27;4.40;;;15.50;99.90;;;;;;5040148;28;20048;-68
2022/05/10 03:04:20;;;;;;;12.95;4.95;;;15.50;99.90;;;;;;5042971;28;20054;-67
2022/05/10 03:06:46;;;;;;;13.75;4.88;;;15.50;99.90;;;;;;5047181;28;20037;-67
2022/05/10 03:09:13;;;;;;;13.77;5.40;;;15.50;99.90;;;;;;5046286;28;20531;-67
2022/05/10 03:11:40;;;;;;;10.65;5.03;;;15.50;99.90;;;;;;5047062;28;20645;-68
2022/05/10 03:14:08;;;;;;;10.85;5.07;;;15.50;99.90;;;;;;5044936;28;20111;-69
2022/05/10 03:16:34;;;;;;;14.73;4.82;;;15.50;99.90;;;;;;5038524;28;20029;-66
2022/05/10 03:19:00;;;;;;;12.93;5.80;;;15.50;99.90;;;;;;5045047;28;20036;-67
2022/05/10 03:21:26;;;;;;;13.90;5.05;;;15.40;99.90;;;;;;5046390;28;20041;-68
2022/05/10 03:23:52;;;;;;;12.25;4.30;;;15.40;99.90;;;;;;5046143;28;20558;-69
2022/05/10 03:26:27;;;;;;;11.38;4.80;;;15.40;99.90;;;;;;5044814;28;20043;-66
2022/05/10 03:28:54;;;;;;;10.85;4.03;;;15.40;99.90;;;;;;5046583;28;20041;-68
2022/05/10 03:31:23;;;;;;;15.90;5.68;;;15.30;99.90;;;;;;5046195;28;20510;-66
2022/05/10 03:34:53;;;;;;;9.68;4.60;;;15.40;99.90;;;;;;5037971;28;20029;-69
2022/05/10 03:36:35;;;;;;;10.50;4.32;;;15.40;99.90;;;;;;5037501;28;20040;-66
2022/05/10 03:39:01;;;;;;;12.18;5.13;;;15.40;99.90;;;;;;5045682;28;20032;-67
2022/05/10 03:41:27;;;;;;;13.43;4.95;;;15.40;99.90;;;;;;5044976;28;20488;-68
2022/05/10 03:43:52;;;;;;;16.23;5.75;;;15.40;99.90;;;;;;5044591;28;20043;-67
2022/05/10 03:46:18;;;;;;;19.35;5.15;;;15.40;99.90;;;;;;5046017;28;20029;-68
2022/05/10 03:48:44;;;;;;;14.68;4.70;;;15.50;99.90;;;;;;5045787;28;20619;-67
2022/05/10 03:51:10;;;;;;;13.75;4.72;;;15.50;99.90;;;;;;5042235;28;20033;-67
2022/05/10 03:53:35;;;;;;;11.85;5.00;;;15.50;99.90;;;;;;5045925;28;20401;-67
2022/05/10 03:56:01;;;;;;;14.23;5.10;;;15.50;99.90;;;;;;5046160;28;20116;-68
2022/05/10 03:58:26;;;;;;;14.52;4.72;;;15.50;99.90;;;;;;5046290;28;20037;-68
2022/05/10 04:00:52;;;;;;;10.57;4.25;;;15.50;99.90;;;;;;5045987;28;20489;-66
2022/05/10 04:03:17;;;;;;;12.30;4.35;;;15.40;99.90;;;;;;5045857;28;20056;-68
2022/05/10 04:05:43;;;;;;;12.07;4.13;;;15.50;99.90;;;;;;5046492;28;20044;-67
2022/05/10 04:08:08;;;;;;;10.63;4.03;;;15.50;99.90;;;;;;5044450;28;20051;-67
2022/05/10 04:10:34;;;;;;;15.20;4.82;;;15.40;99.90;;;;;;5046550;28;20452;-68
2022/05/10 04:13:00;;;;;;;11.98;4.50;;;15.40;99.90;;;;;;5045820;28;20124;-67
2022/05/10 04:15:25;;;;;;;10.00;4.07;;;15.50;99.90;;;;;;5044355;28;20037;-67
2022/05/10 04:17:52;;;;;;;14.25;5.38;;;15.40;99.90;;;;;;5046002;28;20140;-67
2022/05/10 04:20:17;;;;;;;12.48;4.70;;;15.50;99.90;;;;;;5045833;28;20033;-68
2022/05/10 04:22:43;;;;;;;11.55;4.30;;;15.50;99.90;;;;;;5045930;28;20041;-67
2022/05/10 04:25:11;;;;;;;14.73;4.88;;;15.50;99.90;;;;;;5042925;28;20025;-68
2022/05/10 04:27:37;;;;;;;16.85;5.15;;;15.50;99.90;;;;;;5045325;28;20048;-67
2022/05/10 04:30:04;;;;;;;15.25;5.40;;;15.50;99.90;;;;;;5044023;28;20651;-68
2022/05/10 04:32:29;;;;;;;14.00;4.60;;;15.60;99.90;;;;;;5032481;28;21014;-68
2022/05/10 04:34:55;;;;;;;14.63;4.95;;;15.60;99.90;;;;;;5044207;28;20535;-68
2022/05/10 04:37:20;;;;;;;12.65;4.15;;;15.60;99.90;;;;;;5045305;28;20040;-67
2022/05/10 04:42:31;;;;;;;11.30;4.30;;;15.70;99.90;;;;;;5024391;28;20044;-67
2022/05/10 04:44:56;;;;;;;12.65;4.82;;;15.70;99.90;;;;;;5030769;28;20588;-68
2022/05/10 04:47:22;;;;;;;10.55;4.45;;;15.70;99.90;;;;;;5038150;28;20065;-68
2022/05/10 04:49:47;;;;;;;11.93;4.97;;;15.80;99.90;;;;;;5033883;28;20034;-68
2022/05/10 04:52:13;;;;;;;13.20;4.40;;;15.80;99.90;;;;;;5033127;28;20125;-68
2022/05/10 04:54:40;;;;;;;14.27;4.97;;;15.80;99.90;;;;;;5029803;28;20033;-68
2022/05/10 04:57:05;;;;;;;11.45;4.75;;;15.90;99.90;;;;;;5031551;28;20504;-67
2022/05/10 04:59:31;;;;;;;11.15;4.30;;;15.90;99.90;;;;;;5031941;28;20057;-66
2022/05/10 05:01:57;;;;;;;9.85;3.95;;;15.90;99.90;;;;;;5033670;28;20171;-67
2022/05/10 05:04:22;;;;;;;15.68;5.28;;;16.00;99.90;;;;;;5036441;28;20029;-66
2022/05/10 05:06:50;;;;;;;14.05;4.85;;;16.00;99.90;;;;;;5030526;28;20065;-68
2022/05/10 05:09:16;;;;;;;10.40;4.10;;;16.10;99.90;;;;;;5033358;28;20036;-67
2022/05/10 05:11:41;;;;;;;11.30;3.90;;;16.10;99.90;;;;;;5031483;28;20049;-67
2022/05/10 05:14:08;;;;;;;15.32;4.53;;;16.10;99.90;;;;;;5029333;28;20047;-68
2022/05/10 05:16:33;;;;;;;11.68;4.63;;;16.20;99.90;;;;;;5028538;28;20037;-67
2022/05/10 05:18:59;;;;;;;13.90;4.47;;;16.30;99.90;;;;;;5034310;28;20075;-67
2022/05/10 05:21:25;;;;;;;12.48;3.97;;;16.30;99.90;;;;;;5031366;28;20032;-70
2022/05/10 05:23:50;;;;;;;14.82;4.35;;;16.40;99.90;;;;;;5033389;28;20124;-69
2022/05/10 05:26:16;;;;;;;12.35;4.32;;;16.40;99.90;;;;;;5032249;28;20047;-68
2022/05/10 05:28:42;;;;;;;8.90;4.60;;;16.50;99.90;;;;;;5032521;28;20041;-67
2022/05/10 05:31:09;;;;;;;9.80;3.88;;;16.50;99.90;;;;;;5030259;28;20131;-69
2022/05/10 05:33:35;;;;;;;10.73;4.38;;;16.50;99.90;;;;;;5033093;28;20041;-68
2022/05/10 05:36:01;;;;;;;12.70;4.38;;;16.50;99.90;;;;;;5030539;28;20087;-68
2022/05/10 05:38:27;;;;;;;11.65;4.40;;;16.60;99.90;;;;;;5030542;28;20035;-66
2022/05/10 05:40:52;;;;;;;10.52;3.83;;;16.70;99.90;;;;;;5035581;28;20043;-68
2022/05/10 05:43:27;;;;;;;12.32;4.15;;;16.70;99.90;;;;;;5034673;28;20515;-68
2022/05/10 05:45:53;;;;;;;12.38;5.22;;;16.70;99.90;;;;;;5030156;28;20086;-67
2022/05/10 05:48:19;;;;;;;11.65;4.75;;;16.80;99.90;;;;;;5033339;28;20040;-67
2022/05/10 05:50:45;;;;;;;13.00;5.40;;;17.00;99.90;;;;;;5034773;28;20041;-67
2022/05/10 05:53:11;;;;;;;11.15;3.97;;;17.10;99.90;;;;;;5032196;28;20501;-71
2022/05/10 05:55:37;;;;;;;11.27;4.45;;;17.20;99.90;;;;;;5030149;28;20044;-68
2022/05/10 05:58:03;;;;;;;11.70;4.20;;;17.30;99.90;;;;;;5035340;28;20033;-67
2022/05/10 06:00:29;;;;;;;15.98;5.60;;;17.40;99.90;;;;;;5032018;28;20037;-68
2022/05/10 06:02:55;;;;;;;13.32;4.93;;;17.60;99.90;;;;;;5028850;28;20116;-67
2022/05/10 06:05:24;;;;;;;11.65;4.53;;;17.60;99.90;;;;;;5032027;28;20033;-69
2022/05/10 06:07:49;;;;;;;10.98;4.13;;;17.70;99.90;;;;;;5031958;28;20455;-68
2022/05/10 06:10:15;;;;;;;13.10;5.03;;;17.90;99.90;;;;;;5030972;28;20049;-68
2022/05/10 06:12:42;;;;;;;14.77;4.03;;;18.30;99.90;;;;;;5025454;28;20254;-68
2022/05/10 06:15:11;;;;;;;17.10;3.85;;;18.70;99.90;;;;;;5035031;28;20037;-68
2022/05/10 06:17:42;;;;;;;10.95;3.88;;;19.00;99.90;;;;;;5023850;28;20502;-68
2022/05/10 06:20:09;;;;;;;12.30;4.30;;;19.30;99.90;;;;;;5029803;28;20037;-68
2022/05/10 06:22:36;;;;;;;15.43;3.95;;;19.40;99.90;;;;;;5027501;28;21483;-70
2022/05/10 06:25:02;;;;;;;8.75;4.35;;;19.40;99.90;;;;;;5033002;28;20033;-69
2022/05/10 06:27:28;;;;;;;14.27;5.05;;;19.20;99.90;;;;;;5029399;28;20762;-70
2022/05/10 06:29:54;;;;;;;11.68;4.07;;;19.10;99.90;;;;;;5031659;28;20029;-69
2022/05/10 06:32:22;;;;;;;9.75;3.97;;;18.90;99.90;;;;;;5032344;28;20052;-67
2022/05/10 06:34:50;;;;;;;14.77;4.03;;;18.80;99.90;;;;;;5032574;28;20408;-70
2022/05/10 06:40:09;;;;;;;13.00;4.43;;;18.50;99.90;;;;;;5034189;28;20079;-69
2022/05/10 06:42:35;;;;;;;7.57;3.63;;;18.50;99.90;;;;;;5034262;28;20604;-68
2022/05/10 06:45:01;;;;;;;18.08;4.50;;;18.50;99.90;;;;;;5029869;28;20033;-68
2022/05/10 06:47:26;;;;;;;9.82;3.63;;;18.60;99.90;;;;;;5033586;28;20124;-68
2022/05/10 06:49:52;;;;;;;13.38;3.92;;;18.60;99.90;;;;;;5032402;28;20033;-68
2022/05/10 06:52:18;;;;;;;7.28;3.38;;;18.60;99.90;;;;;;5031139;28;20393;-68
2022/05/10 06:54:44;;;;;;;12.98;3.75;;;18.70;99.90;;;;;;5033386;28;20405;-70
2022/05/10 06:57:10;;;;;;;10.98;3.85;;;18.70;99.90;;;;;;5030585;28;20041;-73
2022/05/10 06:59:36;;;;;;;15.23;4.53;;;18.80;99.90;;;;;;5030106;28;20037;-68
2022/05/10 07:02:02;;;;;;;11.98;3.50;;;18.90;99.90;;;;;;5029202;28;20093;-68
2022/05/10 07:04:27;;;;;;;10.77;4.15;;;19.00;99.90;;;;;;5035083;28;20040;-67
2022/05/10 07:06:53;;;;;;;9.77;3.88;;;19.10;99.90;;;;;;5031638;28;20036;-69
2022/05/10 07:09:18;;;;;;;10.77;3.70;;;19.10;99.90;;;;;;5036363;28;20175;-69
2022/05/10 07:11:46;;;;;;;11.30;4.15;;;19.10;99.90;;;;;;5036514;28;20045;-69
2022/05/10 07:14:12;;;;;;;11.38;3.95;;;19.20;99.90;;;;;;5031359;28;20119;-67
2022/05/10 07:16:38;;;;;;;9.75;3.95;;;19.20;99.90;;;;;;5026629;28;20080;-69
2022/05/10 07:19:04;;;;;;;9.52;3.25;;;19.30;99.90;;;;;;5028454;28;20111;-68
2022/05/10 07:21:30;;;;;;;13.52;4.38;;;19.40;99.90;;;;;;5031262;28;20033;-69
2022/05/10 07:23:55;;;;;;;16.05;3.75;;;19.40;99.90;;;;;;5031018;28;20047;-69
2022/05/10 07:26:21;;;;;;;10.60;3.40;;;19.50;99.90;;;;;;5029127;28;20061;-68
2022/05/10 07:28:46;;;;;;;14.70;3.90;;;19.50;99.90;;;;;;5030054;28;20118;-70
2022/05/10 07:31:12;;;;;;;11.85;4.07;;;19.60;99.90;;;;;;5030233;28;20051;-70
2022/05/10 07:33:38;;;;;;;7.72;3.35;;;19.60;99.90;;;;;;5030266;28;20410;-66
2022/05/10 07:38:48;;;;;;;12.20;4.07;;;19.70;99.90;;;;;;5035859;28;20562;-68
2022/05/10 07:41:13;;;;;;;7.78;3.58;;;19.80;99.90;;;;;;5032546;28;20036;-67
2022/05/10 07:43:40;;;;;;;6.45;3.33;;;19.80;99.90;;;;;;5034418;28;20485;-69
2022/05/10 07:46:06;;;;;;;10.25;3.42;;;19.80;99.90;;;;;;5034442;28;20041;-68
2022/05/10 07:48:32;;;;;;;10.10;4.25;;;19.80;99.90;;;;;;5031114;28;20055;-69
2022/05/10 07:50:59;;;;;;;14.20;4.50;;;19.90;99.90;;;;;;5033571;28;20452;-69
2022/05/10 07:53:24;;;;;;;7.25;3.55;;;19.90;99.90;;;;;;5034412;28;20120;-69
2022/05/10 07:55:50;;;;;;;7.13;3.58;;;19.90;99.90;;;;;;5026512;28;20139;-68
2022/05/10 07:58:16;;;;;;;12.98;4.38;;;20.00;99.90;;;;;;5023928;28;20038;-69
2022/05/10 08:00:42;;;;;;;8.32;4.00;;;20.10;99.90;;;;;;5031934;28;20033;-71
2022/05/10 08:03:20;;;;;;;10.70;3.58;;;20.30;99.90;;;;;;5030745;28;20087;-68
2022/05/10 08:05:47;;;;;;;9.80;3.97;;;20.40;99.90;;;;;;5029373;28;20033;-68
2022/05/10 08:08:14;;;;;;;9.52;4.05;;;20.50;99.90;;;;;;5032108;28;20517;-67
2022/05/10 08:10:43;;;;;;;15.35;4.13;;;20.80;99.30;;;;;;5032529;28;20033;-69
2022/05/10 08:13:14;;;;;;;15.32;4.32;;;21.00;99.50;;;;;;5032143;28;20033;-68
2022/05/10 08:15:40;;;;;;;13.48;4.32;;;21.50;99.00;;;;;;5030028;28;20098;-68
2022/05/10 08:18:07;;;;;;;10.38;3.90;;;21.90;98.50;;;;;;5033270;28;20037;-68
2022/05/10 08:20:33;;;;;;;9.75;4.07;;;22.30;97.70;;;;;;5036538;28;20069;-68
2022/05/10 08:22:58;;;;;;;8.95;3.35;;;22.50;97.10;;;;;;5028580;28;20264;-68
2022/05/10 08:25:24;;;;;;;6.72;3.53;;;22.90;96.90;;;;;;5032852;28;20087;-69
2022/05/10 08:27:49;;;;;;;10.20;3.08;;;23.10;96.10;;;;;;5032922;28;20025;-69
2022/05/10 08:30:15;;;;;;;10.20;3.35;;;23.40;95.10;;;;;;5030251;28;20060;-67
2022/05/10 08:32:42;;;;;;;9.38;3.30;;;23.40;94.90;;;;;;5032674;28;20709;-69
2022/05/10 08:35:08;;;;;;;9.88;3.35;;;23.30;94.60;;;;;;5033297;28;21487;-67
2022/05/10 08:37:37;;;;;;;9.77;3.33;;;23.30;94.90;;;;;;5031693;28;20030;-70
2022/05/10 08:40:05;;;;;;;10.68;3.72;;;23.60;94.50;;;;;;5033076;28;20140;-70
2022/05/10 08:42:33;;;;;;;6.75;3.22;;;23.60;94.60;;;;;;5036599;28;20142;-68
2022/05/10 08:45:05;;;;;;;13.48;3.63;;;23.80;94.00;;;;;;5033983;28;20100;-70
2022/05/10 08:47:31;;;;;;;7.40;3.72;;;24.10;93.60;;;;;;5032451;28;20103;-69
2022/05/10 08:50:02;;;;;;;9.18;3.42;;;24.20;92.60;;;;;;5035397;28;20038;-70
2022/05/10 08:52:34;;;;;;;10.07;3.78;;;24.30;92.60;;;;;;5035847;28;20033;-69
2022/05/10 08:55:00;;;;;;;7.47;3.45;;;24.40;92.60;;;;;;5031424;28;20143;-70
2022/05/10 08:57:47;;;;;;;6.07;2.58;;;24.50;91.40;;;;;;5032375;28;20409;-68
2022/05/10 09:00:27;;;;;;;9.50;2.70;;;24.40;92.00;;;;;;5026971;28;20124;-69
2022/05/10 09:02:57;;;;;;;6.27;2.77;;;24.60;91.50;;;;;;5033355;28;20041;-68
2022/05/10 09:05:28;;;;;;;;;;;24.50;91.20;;;;;;5033020;28;20033;-70
2022/05/10 09:08:11;;;;;;;5.10;2.72;;;24.50;90.60;;;;;;5030744;28;19917;-69
2022/05/10 09:10:45;;;;;;;7.63;2.85;;;24.30;91.20;;;;;;5031107;28;20112;-70
2022/05/10 09:13:16;;;;;;;6.68;2.50;;;24.10;91.50;;;;;;5033198;28;20412;-70
2022/05/10 09:15:51;;;;;;;9.05;3.10;;;24.00;91.60;;;;;;5028841;28;20025;-70
2022/05/10 09:18:19;;;;;;;6.72;3.08;;;24.00;91.70;;;;;;5027634;28;20509;-68
2022/05/10 09:21:14;;;;;;;15.70;3.50;;;24.00;91.40;;;;;;5034988;28;20044;-70
2022/05/10 09:23:58;;;;;;;10.63;3.20;;;24.30;91.40;;;;;;5032530;28;20059;-70
2022/05/10 09:26:30;;;;;;;7.60;3.22;;;24.40;91.10;;;;;;5031678;28;20451;-69
2022/05/10 09:29:01;;;;;;;7.78;2.40;;;24.50;91.70;;;;;;5029563;28;20083;-70
2022/05/10 09:37:21;;;;;;;18.55;3.33;;;24.40;91.30;;;;;;5034166;28;20044;-70
2022/05/10 09:39:59;;;;;;;6.85;2.15;;;24.50;91.10;;;;;;5030397;28;20097;-69
2022/05/10 09:42:28;;;;;;;3.55;1.50;;;24.50;91.50;;;;;;5029882;28;20033;-69
2022/05/10 09:45:16;;;;;;;4.93;2.35;;;24.50;90.40;;;;;;5035196;28;20450;-68
2022/05/10 09:47:56;;;;;;;8.82;2.10;;;24.60;89.30;;;;;;5028651;28;20037;-71
2022/05/10 09:50:28;;;;;;;6.82;2.17;;;24.70;88.20;;;;;;5026257;28;20059;-70
2022/05/10 09:53:06;;;;;;;6.10;1.95;;;24.70;87.50;;;;;;5029702;28;20091;-70
2022/05/10 09:55:33;;;;;;;4.85;2.22;;;24.50;87.70;;;;;;5033960;28;20100;-69
2022/05/10 09:58:33;;;;;;;7.47;1.90;;;24.40;88.30;;;;;;5034887;28;20051;-67
2022/05/10 10:01:01;;;;;;;5.32;2.63;;;24.40;89.80;;;;;;5030029;28;20052;-68
2022/05/10 10:03:31;;;;;;;4.70;1.45;;;24.40;90.10;;;;;;5028821;28;20034;-68
2022/05/10 10:06:23;;;;;;;6.28;1.48;;;24.60;89.90;;;;;;5032686;28;20682;-69
2022/05/10 10:08:56;;;;;;;3.60;1.50;;;24.80;89.10;;;;;;5028807;28;20251;-68
2022/05/10 10:11:22;;;;;;;13.77;1.95;;;25.00;86.00;;;;;;5030424;28;20638;-69
2022/05/10 10:14:09;;;;;;;4.55;1.48;;;25.20;85.80;;;;;;5027639;28;20034;-68
2022/05/10 10:16:50;;;;;;;13.32;1.80;;;25.30;85.70;;;;;;5031785;28;20080;-68
2022/05/10 10:19:18;;;;;;;7.70;1.60;;;25.40;84.00;;;;;;5031565;28;20060;-69
2022/05/10 10:21:53;;;;;;;4.43;2.00;;;25.40;83.90;;;;;;5031325;28;20041;-69
2022/05/10 10:24:50;;;;;;;4.43;1.65;;;25.40;84.90;;;;;;5027174;28;20041;-69
2022/05/10 10:27:38;;;;;;;3.15;1.20;;;25.60;85.10;;;;;;5025817;28;20041;-68
2022/05/10 10:30:31;;;;;;;6.68;1.58;;;25.60;83.30;;;;;;5034023;28;20111;-68
2022/05/10 10:33:20;;;;;;;5.32;1.20;;;25.60;85.00;;;;;;5034002;28;20037;-70
2022/05/10 10:36:02;;;;;;;3.17;1.63;;;25.70;83.80;;;;;;5025005;28;20037;-69
2022/05/10 10:39:04;;;;;;;4.03;1.38;;;25.60;83.10;;;;;;5026839;28;21037;-68
2022/05/10 10:42:02;;;;;;;7.38;1.70;;;25.70;82.50;;;;;;4994495;28;20048;-69
2022/05/10 10:44:31;;;;;;;3.35;1.20;;;25.70;82.00;;;;;;5030166;28;20038;-69
2022/05/10 10:47:05;;;;;;;7.30;2.33;;;25.90;80.50;;;;;;5032946;28;20033;-70
2022/05/10 10:49:39;;;;;;;3.75;1.77;;;25.90;80.30;;;;;;5028363;28;25640;-67
2022/05/10 10:52:05;;;;;;;3.20;1.60;;;25.90;80.60;;;;;;5029588;28;20041;-70
2022/05/10 10:54:31;;;;;;;3.85;1.67;;;25.80;79.30;;;;;;5028234;28;20076;-70
2022/05/10 10:57:39;;;;;;;9.35;1.38;;;25.60;79.90;;;;;;5030786;28;20029;-69
2022/05/10 11:00:18;;;;;;;3.03;1.75;;;25.60;80.60;;;;;;5028111;28;20032;-70
2022/05/10 11:03:07;;;;;;;7.63;1.85;;;25.60;79.20;;;;;;5026525;28;20084;-70
2022/05/10 11:05:47;;;;;;;6.73;2.10;;;25.70;79.30;;;;;;5030123;28;20472;-69
2022/05/10 11:08:34;;;;;;;1.88;1.02;;;26.00;79.90;;;;;;5030997;28;20049;-70
2022/05/10 11:11:13;;;;;;;3.67;1.60;;;26.10;78.30;;;;;;5030891;28;20044;-70
2022/05/10 11:13:42;;;;;;;6.80;1.85;;;26.10;79.00;;;;;;5024609;28;20037;-68
2022/05/10 11:16:11;;;;;;;4.38;1.75;;;26.10;77.70;;;;;;5031450;28;20531;-67
2022/05/10 11:18:39;;;;;;;2.80;1.40;;;26.10;77.60;;;;;;5026755;28;20052;-69
2022/05/10 11:21:31;;;;;;;4.80;1.58;;;26.10;79.10;;;;;;5030147;28;20052;-69
2022/05/10 11:24:05;;;;;;;5.15;1.35;;;26.10;79.20;;;;;;5028854;28;20039;-68
2022/05/10 11:26:40;;;;;;;29.17;1.75;;;26.10;76.30;;;;;;5029351;28;20049;-69
2022/05/10 11:29:10;;;;;;;4.60;1.73;;;26.20;75.30;;;;;;5027906;28;20055;-69
2022/05/10 11:31:57;;;;;;;2.72;1.50;;;26.10;76.20;;;;;;5031734;28;20080;-70
2022/05/10 11:34:29;;;;;;;3.70;2.00;;;25.90;75.90;;;;;;5028594;28;20905;-69
2022/05/10 11:36:59;;;;;;;5.32;1.85;;;25.90;76.80;;;;;;5031438;28;20041;-70
2022/05/10 11:39:28;;;;;;;5.03;2.17;;;25.80;76.20;;;;;;5034822;28;20034;-70
2022/05/10 11:42:23;;;;;;;12.60;2.40;;;25.80;77.60;;;;;;5034485;28;20037;-71
2022/05/10 11:45:19;;;;;;;5.30;2.15;;;25.80;77.90;;;;;;5033694;28;20155;-70
2022/05/10 11:47:44;;;;;;;8.90;2.40;;;25.80;78.50;;;;;;5030007;28;20046;-69
2022/05/10 11:50:37;;;;;;;7.63;1.70;;;25.70;78.40;;;;;;5036515;28;20097;-69
2022/05/10 11:53:22;;;;;;;4.95;1.52;;;25.90;79.00;;;;;;5030175;28;20476;-68
2022/05/10 11:55:59;;;;;;;5.95;1.88;;;26.10;79.50;;;;;;5031498;28;20041;-69
2022/05/10 11:58:28;;;;;;;5.70;2.05;;;26.10;78.80;;;;;;5029454;28;20140;-68
2022/05/10 12:01:09;;;;;;;10.35;2.40;;;26.20;78.50;;;;;;5038912;28;20041;-69
2022/05/10 12:03:43;;;;;;;9.98;2.60;;;26.40;78.40;;;;;;5038426;28;20033;-67
2022/05/10 12:06:24;;;;;;;3.90;1.73;;;26.40;78.00;;;;;;5038017;28;20040;-68
2022/05/10 12:08:54;;;;;;;6.88;2.60;;;26.40;77.70;;;;;;5044329;28;20045;-71
2022/05/10 12:11:30;;;;;;;6.25;2.10;;;26.50;76.70;;;;;;5048699;28;20097;-69
2022/05/10 12:22:47;;;;;;;8.02;2.05;;;25.90;78.90;;;;;;5038356;28;20056;-70
2022/05/10 12:25:52;;;;;;;3.95;2.13;;;26.00;79.40;;;;;;5036290;28;20080;-66
2022/05/10 12:28:39;;;;;;;13.15;2.53;;;25.90;81.10;;;;;;5038489;28;20048;-69
2022/05/10 12:31:25;;;;;;;4.82;2.00;;;25.80;79.80;;;;;;5044034;28;20044;-69
2022/05/10 12:34:09;;;;;;;10.95;2.55;;;25.80;79.30;;;;;;5041539;28;20052;-70
2022/05/10 12:36:39;;;;;;;4.25;2.33;;;25.80;78.40;;;;;;5044081;28;20037;-68
2022/05/10 12:39:30;;;;;;;5.47;2.00;;;25.70;78.20;;;;;;5042371;28;21368;-69
2022/05/10 12:42:19;;;;;;;18.02;2.78;;;25.60;79.00;;;;;;5036249;28;20041;-69
2022/05/10 12:45:02;;;;;;;12.00;2.17;;;25.60;77.70;;;;;;5037367;28;20603;-69
2022/05/10 12:48:06;;;;;;;4.88;1.73;;;25.50;78.30;;;;;;5031248;28;20083;-68
2022/05/10 12:50:51;;;;;;;7.18;1.95;;;25.60;78.90;;;;;;5027762;28;20612;-69
2022/05/10 12:53:39;;;;;;;9.00;1.85;;;25.50;78.70;;;;;;5030136;28;20338;-69
2022/05/10 12:56:25;;;;;;;7.28;1.55;;;25.50;78.10;;;;;;5031649;28;20030;-69
2022/05/10 12:58:53;;;;;;;5.40;1.35;;;25.40;78.60;;;;;;5032083;28;20041;-68
2022/05/10 13:01:23;;;;;;;4.22;0.95;;;25.30;77.90;;;;;;5029728;28;20021;-70
2022/05/10 13:03:57;;;;;;;;;;;25.10;76.70;;;;;;5036858;28;20088;-69
2022/05/10 13:06:59;;;;;;;7.38;1.50;;;25.00;76.50;;;;;;5031976;28;19928;-70
2022/05/10 13:09:35;;;;;;;7.22;0.98;;;25.00;75.60;;;;;;5030061;28;20041;-69
2022/05/10 13:12:09;;;;;;;6.38;1.20;;;24.80;74.60;;;;;;5029483;28;20033;-71
2022/05/10 13:14:44;;;;;;;2.40;1.27;;;24.70;75.40;;;;;;5030589;28;20409;-69
2022/05/10 13:17:18;;;;;;;2.03;0.90;;;24.40;75.00;;;;;;5033839;28;20037;-68
2022/05/10 13:19:44;;;;;;;8.90;1.15;;;24.30;75.30;;;;;;5030134;28;22205;-69
2022/05/10 13:22:14;;;;;;;2.83;0.93;;;24.20;75.90;;;;;;5032666;28;20037;-69
2022/05/10 13:24:44;;;;;;;7.47;1.27;;;24.10;75.50;;;;;;5032273;28;20037;-66
2022/05/10 13:27:25;;;;;;;4.88;0.70;;;24.10;75.20;;;;;;5033340;28;20698;-69
2022/05/10 13:29:51;;;;;;;11.65;1.58;;;24.00;75.40;;;;;;5032653;28;20123;-72
2022/05/10 13:32:34;;;;;;;4.97;1.40;;;24.00;75.50;;;;;;5032398;28;20117;-70